sensor_id;sensor_type;location;lat;lon;timestamp;P1;durP1;ratioP1;P2;durP2;ratioP2
59263;SDS011;45030;42.720;23.344;2022-12-24T00:01:50;366.55;;;156.75;;
59263;SDS011;45030;42.720;23.344;2022-12-24T00:04:15;399.50;;;172.13;;
59263;SDS011;45030;42.720;23.344;2022-12-24T00:06:40;335.15;;;148.15;;
59263;SDS011;45030;42.720;23.344;2022-12-24T00:09:05;257.98;;;112.97;;
59263;SDS011;45030;42.720;23.344;2022-12-24T00:11:31;240.73;;;102.15;;
59263;SDS011;45030;42.720;23.344;2022-12-24T00:13:56;208.18;;;94.68;;
59263;SDS011;45030;42.720;23.344;2022-12-24T00:16:21;224.57;;;94.22;;
59263;SDS011;45030;42.720;23.344;2022-12-24T00:18:46;214.35;;;94.80;;
59263;SDS011;45030;42.720;23.344;2022-12-24T00:21:12;235.55;;;100.75;;
59263;SDS011;45030;42.720;23.344;2022-12-24T00:23:38;225.80;;;97.55;;
59263;SDS011;45030;42.720;23.344;2022-12-24T00:26:03;265.73;;;118.65;;
59263;SDS011;45030;42.720;23.344;2022-12-24T00:28:29;335.42;;;151.00;;
59263;SDS011;45030;42.720;23.344;2022-12-24T00:30:54;372.38;;;166.75;;
59263;SDS011;45030;42.720;23.344;2022-12-24T00:33:19;361.45;;;160.13;;
59263;SDS011;45030;42.720;23.344;2022-12-24T00:35:48;363.92;;;158.98;;
59263;SDS011;45030;42.720;23.344;2022-12-24T00:38:13;327.77;;;148.68;;
59263;SDS011;45030;42.720;23.344;2022-12-24T00:40:39;326.90;;;145.57;;
59263;SDS011;45030;42.720;23.344;2022-12-24T00:43:04;347.25;;;160.45;;
59263;SDS011;45030;42.720;23.344;2022-12-24T00:45:29;313.25;;;135.27;;
59263;SDS011;45030;42.720;23.344;2022-12-24T00:47:54;313.48;;;131.57;;
59263;SDS011;45030;42.720;23.344;2022-12-24T00:50:19;292.33;;;127.28;;
59263;SDS011;45030;42.720;23.344;2022-12-24T00:52:45;272.08;;;118.10;;
59263;SDS011;45030;42.720;23.344;2022-12-24T00:55:10;261.55;;;111.32;;
59263;SDS011;45030;42.720;23.344;2022-12-24T00:57:35;261.98;;;124.63;;
59263;SDS011;45030;42.720;23.344;2022-12-24T01:00:01;230.02;;;103.15;;
59263;SDS011;45030;42.720;23.344;2022-12-24T01:02:26;213.43;;;99.55;;
59263;SDS011;45030;42.720;23.344;2022-12-24T01:04:51;240.25;;;101.18;;
59263;SDS011;45030;42.720;23.344;2022-12-24T01:07:35;191.53;;;84.30;;
59263;SDS011;45030;42.720;23.344;2022-12-24T01:10:01;161.25;;;73.97;;
59263;SDS011;45030;42.720;23.344;2022-12-24T01:12:26;172.50;;;79.07;;
59263;SDS011;45030;42.720;23.344;2022-12-24T01:14:52;178.27;;;82.85;;
59263;SDS011;45030;42.720;23.344;2022-12-24T01:17:17;219.55;;;99.85;;
59263;SDS011;45030;42.720;23.344;2022-12-24T01:19:42;250.90;;;107.43;;
59263;SDS011;45030;42.720;23.344;2022-12-24T01:22:07;275.13;;;116.63;;
59263;SDS011;45030;42.720;23.344;2022-12-24T01:24:33;250.95;;;107.35;;
59263;SDS011;45030;42.720;23.344;2022-12-24T01:26:58;225.27;;;101.07;;
59263;SDS011;45030;42.720;23.344;2022-12-24T01:29:23;261.98;;;116.55;;
59263;SDS011;45030;42.720;23.344;2022-12-24T01:31:48;309.45;;;132.45;;
59263;SDS011;45030;42.720;23.344;2022-12-24T01:34:14;309.77;;;133.88;;
59263;SDS011;45030;42.720;23.344;2022-12-24T01:36:39;285.17;;;125.00;;
59263;SDS011;45030;42.720;23.344;2022-12-24T01:39:04;278.63;;;115.60;;
59263;SDS011;45030;42.720;23.344;2022-12-24T01:41:30;315.42;;;136.88;;
59263;SDS011;45030;42.720;23.344;2022-12-24T01:44:22;295.75;;;130.45;;
59263;SDS011;45030;42.720;23.344;2022-12-24T01:46:49;295.38;;;126.43;;
59263;SDS011;45030;42.720;23.344;2022-12-24T01:49:15;241.95;;;101.50;;
59263;SDS011;45030;42.720;23.344;2022-12-24T01:51:42;239.55;;;106.32;;
59263;SDS011;45030;42.720;23.344;2022-12-24T01:54:10;215.70;;;93.07;;
59263;SDS011;45030;42.720;23.344;2022-12-24T01:56:39;221.65;;;103.28;;
59263;SDS011;45030;42.720;23.344;2022-12-24T01:59:08;257.02;;;113.13;;
59263;SDS011;45030;42.720;23.344;2022-12-24T02:01:34;215.10;;;98.00;;
59263;SDS011;45030;42.720;23.344;2022-12-24T02:04:01;238.73;;;95.43;;
59263;SDS011;45030;42.720;23.344;2022-12-24T02:06:28;171.23;;;75.13;;
59263;SDS011;45030;42.720;23.344;2022-12-24T02:08:54;156.30;;;69.22;;
59263;SDS011;45030;42.720;23.344;2022-12-24T02:11:20;221.57;;;98.13;;
59263;SDS011;45030;42.720;23.344;2022-12-24T02:13:47;247.23;;;108.68;;
59263;SDS011;45030;42.720;23.344;2022-12-24T02:16:26;211.43;;;98.38;;
59263;SDS011;45030;42.720;23.344;2022-12-24T02:21:58;222.00;;;97.88;;
59263;SDS011;45030;42.720;23.344;2022-12-24T02:24:37;256.33;;;110.82;;
59263;SDS011;45030;42.720;23.344;2022-12-24T02:27:23;269.02;;;118.05;;
59263;SDS011;45030;42.720;23.344;2022-12-24T02:35:08;232.82;;;106.38;;
59263;SDS011;45030;42.720;23.344;2022-12-24T02:40:24;241.15;;;104.20;;
59263;SDS011;45030;42.720;23.344;2022-12-24T02:42:53;245.70;;;105.80;;
59263;SDS011;45030;42.720;23.344;2022-12-24T02:45:21;219.82;;;102.40;;
59263;SDS011;45030;42.720;23.344;2022-12-24T02:47:46;236.73;;;106.15;;
59263;SDS011;45030;42.720;23.344;2022-12-24T02:50:13;181.20;;;89.78;;
59263;SDS011;45030;42.720;23.344;2022-12-24T02:52:39;219.10;;;97.68;;
59263;SDS011;45030;42.720;23.344;2022-12-24T02:55:22;233.07;;;98.63;;
59263;SDS011;45030;42.720;23.344;2022-12-24T03:00:42;237.77;;;103.10;;
59263;SDS011;45030;42.720;23.344;2022-12-24T03:06:06;330.75;;;150.68;;
59263;SDS011;45030;42.720;23.344;2022-12-24T03:11:13;308.58;;;107.40;;
59263;SDS011;45030;42.720;23.344;2022-12-24T03:13:39;257.98;;;89.35;;
59263;SDS011;45030;42.720;23.344;2022-12-24T03:16:15;214.65;;;80.80;;
59263;SDS011;45030;42.720;23.344;2022-12-24T03:18:42;232.13;;;80.93;;
59263;SDS011;45030;42.720;23.344;2022-12-24T03:21:12;218.40;;;84.03;;
59263;SDS011;45030;42.720;23.344;2022-12-24T03:23:40;184.18;;;72.32;;
59263;SDS011;45030;42.720;23.344;2022-12-24T03:26:06;187.23;;;75.78;;
59263;SDS011;45030;42.720;23.344;2022-12-24T03:28:32;190.05;;;66.80;;
59263;SDS011;45030;42.720;23.344;2022-12-24T03:31:02;191.10;;;71.88;;
59263;SDS011;45030;42.720;23.344;2022-12-24T03:33:29;220.57;;;80.10;;
59263;SDS011;45030;42.720;23.344;2022-12-24T03:35:54;245.35;;;78.57;;
59263;SDS011;45030;42.720;23.344;2022-12-24T03:38:19;274.77;;;86.70;;
59263;SDS011;45030;42.720;23.344;2022-12-24T03:40:44;160.65;;;58.42;;
59263;SDS011;45030;42.720;23.344;2022-12-24T03:43:10;182.93;;;67.78;;
59263;SDS011;45030;42.720;23.344;2022-12-24T03:45:35;183.75;;;66.07;;
59263;SDS011;45030;42.720;23.344;2022-12-24T03:48:01;179.18;;;71.30;;
59263;SDS011;45030;42.720;23.344;2022-12-24T03:50:26;260.08;;;85.65;;
59263;SDS011;45030;42.720;23.344;2022-12-24T03:52:51;284.10;;;86.15;;
59263;SDS011;45030;42.720;23.344;2022-12-24T03:55:17;199.82;;;74.55;;
59263;SDS011;45030;42.720;23.344;2022-12-24T03:57:43;287.55;;;88.88;;
59263;SDS011;45030;42.720;23.344;2022-12-24T04:00:08;211.30;;;83.50;;
59263;SDS011;45030;42.720;23.344;2022-12-24T04:02:33;280.77;;;93.05;;
59263;SDS011;45030;42.720;23.344;2022-12-24T04:04:59;284.05;;;89.25;;
59263;SDS011;45030;42.720;23.344;2022-12-24T04:07:24;285.63;;;94.38;;
59263;SDS011;45030;42.720;23.344;2022-12-24T04:09:49;256.75;;;87.78;;
59263;SDS011;45030;42.720;23.344;2022-12-24T04:12:14;180.15;;;73.57;;
59263;SDS011;45030;42.720;23.344;2022-12-24T04:14:40;188.93;;;72.30;;
59263;SDS011;45030;42.720;23.344;2022-12-24T04:17:05;142.75;;;52.70;;
59263;SDS011;45030;42.720;23.344;2022-12-24T04:19:30;189.68;;;63.40;;
59263;SDS011;45030;42.720;23.344;2022-12-24T04:21:56;135.77;;;57.08;;
59263;SDS011;45030;42.720;23.344;2022-12-24T04:24:21;145.18;;;51.55;;
59263;SDS011;45030;42.720;23.344;2022-12-24T04:26:46;149.45;;;52.58;;
59263;SDS011;45030;42.720;23.344;2022-12-24T04:29:11;134.15;;;51.20;;
59263;SDS011;45030;42.720;23.344;2022-12-24T04:31:37;122.10;;;44.85;;
59263;SDS011;45030;42.720;23.344;2022-12-24T04:34:02;191.43;;;64.93;;
59263;SDS011;45030;42.720;23.344;2022-12-24T04:36:27;149.52;;;52.85;;
59263;SDS011;45030;42.720;23.344;2022-12-24T04:38:52;173.07;;;57.72;;
59263;SDS011;45030;42.720;23.344;2022-12-24T04:41:19;157.40;;;52.80;;
59263;SDS011;45030;42.720;23.344;2022-12-24T04:43:44;167.55;;;65.38;;
59263;SDS011;45030;42.720;23.344;2022-12-24T04:46:10;313.33;;;101.70;;
59263;SDS011;45030;42.720;23.344;2022-12-24T04:48:38;346.35;;;110.38;;
59263;SDS011;45030;42.720;23.344;2022-12-24T04:51:04;271.83;;;96.35;;
59263;SDS011;45030;42.720;23.344;2022-12-24T04:53:29;265.85;;;87.55;;
59263;SDS011;45030;42.720;23.344;2022-12-24T04:55:55;304.20;;;90.18;;
59263;SDS011;45030;42.720;23.344;2022-12-24T04:58:20;203.32;;;78.35;;
59263;SDS011;45030;42.720;23.344;2022-12-24T05:00:46;229.80;;;84.70;;
59263;SDS011;45030;42.720;23.344;2022-12-24T05:03:11;315.05;;;99.57;;
59263;SDS011;45030;42.720;23.344;2022-12-24T05:05:36;281.05;;;93.85;;
59263;SDS011;45030;42.720;23.344;2022-12-24T05:08:01;265.02;;;110.68;;
59263;SDS011;45030;42.720;23.344;2022-12-24T05:10:27;229.48;;;78.93;;
59263;SDS011;45030;42.720;23.344;2022-12-24T05:12:52;227.02;;;73.50;;
59263;SDS011;45030;42.720;23.344;2022-12-24T05:15:17;252.65;;;79.03;;
59263;SDS011;45030;42.720;23.344;2022-12-24T05:17:42;268.40;;;92.80;;
59263;SDS011;45030;42.720;23.344;2022-12-24T05:20:08;235.23;;;81.20;;
59263;SDS011;45030;42.720;23.344;2022-12-24T05:22:33;231.00;;;81.95;;
59263;SDS011;45030;42.720;23.344;2022-12-24T05:25:17;170.05;;;59.35;;
59263;SDS011;45030;42.720;23.344;2022-12-24T05:28:00;168.25;;;56.83;;
59263;SDS011;45030;42.720;23.344;2022-12-24T05:30:26;167.45;;;58.25;;
59263;SDS011;45030;42.720;23.344;2022-12-24T05:32:51;202.63;;;58.25;;
59263;SDS011;45030;42.720;23.344;2022-12-24T05:35:16;212.30;;;59.95;;
59263;SDS011;45030;42.720;23.344;2022-12-24T05:37:41;177.07;;;56.25;;
59263;SDS011;45030;42.720;23.344;2022-12-24T05:40:07;205.50;;;62.75;;
59263;SDS011;45030;42.720;23.344;2022-12-24T05:42:32;143.35;;;54.58;;
59263;SDS011;45030;42.720;23.344;2022-12-24T05:44:57;171.73;;;54.90;;
59263;SDS011;45030;42.720;23.344;2022-12-24T05:47:23;153.48;;;53.70;;
59263;SDS011;45030;42.720;23.344;2022-12-24T05:49:48;149.90;;;50.65;;
59263;SDS011;45030;42.720;23.344;2022-12-24T05:52:13;161.85;;;48.97;;
59263;SDS011;45030;42.720;23.344;2022-12-24T05:54:38;167.63;;;49.40;;
59263;SDS011;45030;42.720;23.344;2022-12-24T05:57:03;134.93;;;48.42;;
59263;SDS011;45030;42.720;23.344;2022-12-24T05:59:29;115.13;;;46.28;;
59263;SDS011;45030;42.720;23.344;2022-12-24T06:01:54;127.63;;;45.97;;
59263;SDS011;45030;42.720;23.344;2022-12-24T06:04:19;105.75;;;44.42;;
59263;SDS011;45030;42.720;23.344;2022-12-24T06:06:45;164.50;;;53.22;;
59263;SDS011;45030;42.720;23.344;2022-12-24T06:09:10;126.25;;;49.63;;
59263;SDS011;45030;42.720;23.344;2022-12-24T06:11:35;136.40;;;51.67;;
59263;SDS011;45030;42.720;23.344;2022-12-24T06:14:00;130.70;;;54.40;;
59263;SDS011;45030;42.720;23.344;2022-12-24T06:16:25;124.22;;;52.90;;
59263;SDS011;45030;42.720;23.344;2022-12-24T06:18:51;130.98;;;55.38;;
59263;SDS011;45030;42.720;23.344;2022-12-24T06:21:16;153.77;;;60.65;;
59263;SDS011;45030;42.720;23.344;2022-12-24T06:23:42;177.77;;;70.38;;
59263;SDS011;45030;42.720;23.344;2022-12-24T06:26:10;182.77;;;67.80;;
59263;SDS011;45030;42.720;23.344;2022-12-24T06:28:36;158.20;;;61.50;;
59263;SDS011;45030;42.720;23.344;2022-12-24T06:31:02;177.23;;;67.80;;
59263;SDS011;45030;42.720;23.344;2022-12-24T06:33:28;137.55;;;52.05;;
59263;SDS011;45030;42.720;23.344;2022-12-24T06:35:53;133.88;;;55.35;;
59263;SDS011;45030;42.720;23.344;2022-12-24T06:38:18;118.10;;;47.45;;
59263;SDS011;45030;42.720;23.344;2022-12-24T06:40:44;100.20;;;42.00;;
59263;SDS011;45030;42.720;23.344;2022-12-24T06:43:10;92.35;;;40.00;;
59263;SDS011;45030;42.720;23.344;2022-12-24T06:45:36;185.23;;;88.60;;
59263;SDS011;45030;42.720;23.344;2022-12-24T06:48:01;171.73;;;69.63;;
59263;SDS011;45030;42.720;23.344;2022-12-24T06:50:27;122.60;;;52.05;;
59263;SDS011;45030;42.720;23.344;2022-12-24T06:52:52;106.13;;;49.55;;
59263;SDS011;45030;42.720;23.344;2022-12-24T06:55:17;119.13;;;51.00;;
59263;SDS011;45030;42.720;23.344;2022-12-24T06:57:42;152.52;;;59.47;;
59263;SDS011;45030;42.720;23.344;2022-12-24T07:00:09;131.50;;;60.33;;
59263;SDS011;45030;42.720;23.344;2022-12-24T07:02:34;131.55;;;60.35;;
59263;SDS011;45030;42.720;23.344;2022-12-24T07:05:00;170.85;;;75.95;;
59263;SDS011;45030;42.720;23.344;2022-12-24T07:07:25;182.15;;;69.45;;
59263;SDS011;45030;42.720;23.344;2022-12-24T07:09:50;134.48;;;57.38;;
59263;SDS011;45030;42.720;23.344;2022-12-24T07:12:15;133.85;;;58.83;;
59263;SDS011;45030;42.720;23.344;2022-12-24T07:14:41;106.10;;;46.08;;
59263;SDS011;45030;42.720;23.344;2022-12-24T07:17:06;170.00;;;77.30;;
59263;SDS011;45030;42.720;23.344;2022-12-24T07:19:31;165.57;;;65.97;;
59263;SDS011;45030;42.720;23.344;2022-12-24T07:21:58;124.25;;;55.85;;
59263;SDS011;45030;42.720;23.344;2022-12-24T07:24:23;147.40;;;63.22;;
59263;SDS011;45030;42.720;23.344;2022-12-24T07:26:48;110.57;;;54.00;;
59263;SDS011;45030;42.720;23.344;2022-12-24T07:29:13;202.45;;;90.65;;
59263;SDS011;45030;42.720;23.344;2022-12-24T07:31:39;250.75;;;99.82;;
59263;SDS011;45030;42.720;23.344;2022-12-24T07:34:04;185.35;;;77.90;;
59263;SDS011;45030;42.720;23.344;2022-12-24T07:36:29;261.75;;;105.72;;
59263;SDS011;45030;42.720;23.344;2022-12-24T07:38:54;186.43;;;78.95;;
59263;SDS011;45030;42.720;23.344;2022-12-24T07:41:20;185.30;;;77.90;;
59263;SDS011;45030;42.720;23.344;2022-12-24T07:43:46;260.88;;;107.95;;
59263;SDS011;45030;42.720;23.344;2022-12-24T07:46:11;233.25;;;98.15;;
59263;SDS011;45030;42.720;23.344;2022-12-24T07:48:36;172.30;;;76.57;;
59263;SDS011;45030;42.720;23.344;2022-12-24T07:51:02;219.80;;;93.70;;
59263;SDS011;45030;42.720;23.344;2022-12-24T07:53:27;181.07;;;79.05;;
59263;SDS011;45030;42.720;23.344;2022-12-24T07:55:53;148.65;;;69.85;;
59263;SDS011;45030;42.720;23.344;2022-12-24T07:58:18;148.02;;;67.20;;
59263;SDS011;45030;42.720;23.344;2022-12-24T08:00:44;137.18;;;65.93;;
59263;SDS011;45030;42.720;23.344;2022-12-24T08:03:13;138.88;;;65.93;;
59263;SDS011;45030;42.720;23.344;2022-12-24T08:05:39;134.48;;;60.78;;
59263;SDS011;45030;42.720;23.344;2022-12-24T08:08:04;117.38;;;56.47;;
59263;SDS011;45030;42.720;23.344;2022-12-24T08:10:29;86.55;;;46.58;;
59263;SDS011;45030;42.720;23.344;2022-12-24T08:12:55;77.60;;;41.58;;
59263;SDS011;45030;42.720;23.344;2022-12-24T08:15:20;75.82;;;41.38;;
59263;SDS011;45030;42.720;23.344;2022-12-24T08:17:45;79.72;;;43.20;;
59263;SDS011;45030;42.720;23.344;2022-12-24T08:20:11;66.68;;;35.03;;
59263;SDS011;45030;42.720;23.344;2022-12-24T08:22:36;50.42;;;31.98;;
59263;SDS011;45030;42.720;23.344;2022-12-24T08:25:01;63.53;;;35.63;;
59263;SDS011;45030;42.720;23.344;2022-12-24T08:27:26;57.70;;;31.90;;
59263;SDS011;45030;42.720;23.344;2022-12-24T08:29:53;55.05;;;30.17;;
59263;SDS011;45030;42.720;23.344;2022-12-24T08:32:18;56.85;;;31.73;;
59263;SDS011;45030;42.720;23.344;2022-12-24T08:34:43;54.15;;;29.90;;
59263;SDS011;45030;42.720;23.344;2022-12-24T08:37:09;58.72;;;32.03;;
59263;SDS011;45030;42.720;23.344;2022-12-24T08:39:34;54.65;;;31.48;;
59263;SDS011;45030;42.720;23.344;2022-12-24T08:41:59;63.80;;;34.42;;
59263;SDS011;45030;42.720;23.344;2022-12-24T08:44:24;55.28;;;31.60;;
59263;SDS011;45030;42.720;23.344;2022-12-24T08:46:50;58.13;;;33.47;;
59263;SDS011;45030;42.720;23.344;2022-12-24T08:49:15;62.80;;;33.28;;
59263;SDS011;45030;42.720;23.344;2022-12-24T08:51:40;56.83;;;32.10;;
59263;SDS011;45030;42.720;23.344;2022-12-24T08:54:06;67.40;;;34.85;;
59263;SDS011;45030;42.720;23.344;2022-12-24T08:56:31;64.25;;;32.42;;
59263;SDS011;45030;42.720;23.344;2022-12-24T08:58:58;73.57;;;35.92;;
59263;SDS011;45030;42.720;23.344;2022-12-24T09:01:23;75.47;;;38.95;;
59263;SDS011;45030;42.720;23.344;2022-12-24T09:03:48;61.40;;;33.38;;
59263;SDS011;45030;42.720;23.344;2022-12-24T09:06:14;63.95;;;32.95;;
59263;SDS011;45030;42.720;23.344;2022-12-24T09:08:40;64.90;;;33.70;;
59263;SDS011;45030;42.720;23.344;2022-12-24T09:11:15;60.58;;;33.75;;
59263;SDS011;45030;42.720;23.344;2022-12-24T09:13:41;61.45;;;33.78;;
59263;SDS011;45030;42.720;23.344;2022-12-24T09:16:07;63.85;;;35.85;;
59263;SDS011;45030;42.720;23.344;2022-12-24T09:18:33;72.20;;;42.45;;
59263;SDS011;45030;42.720;23.344;2022-12-24T09:20:59;73.53;;;38.90;;
59263;SDS011;45030;42.720;23.344;2022-12-24T09:23:24;76.45;;;40.30;;
59263;SDS011;45030;42.720;23.344;2022-12-24T09:25:50;64.03;;;36.40;;
59263;SDS011;45030;42.720;23.344;2022-12-24T09:28:15;73.40;;;39.33;;
59263;SDS011;45030;42.720;23.344;2022-12-24T09:30:40;79.50;;;45.08;;
59263;SDS011;45030;42.720;23.344;2022-12-24T09:33:05;67.53;;;36.72;;
59263;SDS011;45030;42.720;23.344;2022-12-24T09:35:31;102.47;;;60.10;;
59263;SDS011;45030;42.720;23.344;2022-12-24T09:37:56;116.35;;;69.47;;
59263;SDS011;45030;42.720;23.344;2022-12-24T09:40:37;88.40;;;48.22;;
59263;SDS011;45030;42.720;23.344;2022-12-24T09:43:10;75.00;;;41.80;;
59263;SDS011;45030;42.720;23.344;2022-12-24T09:45:37;68.05;;;37.65;;
59263;SDS011;45030;42.720;23.344;2022-12-24T09:48:04;62.45;;;32.53;;
59263;SDS011;45030;42.720;23.344;2022-12-24T09:54:06;57.88;;;34.22;;
59263;SDS011;45030;42.720;23.344;2022-12-24T09:55:59;51.90;;;28.98;;
59263;SDS011;45030;42.720;23.344;2022-12-24T09:58:30;42.58;;;24.63;;
59263;SDS011;45030;42.720;23.344;2022-12-24T10:00:57;46.15;;;25.50;;
59263;SDS011;45030;42.720;23.344;2022-12-24T10:03:23;44.65;;;23.80;;
59263;SDS011;45030;42.720;23.344;2022-12-24T10:08:25;64.75;;;32.97;;
59263;SDS011;45030;42.720;23.344;2022-12-24T10:10:53;55.75;;;32.42;;
59263;SDS011;45030;42.720;23.344;2022-12-24T10:16:21;64.78;;;38.22;;
59263;SDS011;45030;42.720;23.344;2022-12-24T10:26:56;51.45;;;28.15;;
59263;SDS011;45030;42.720;23.344;2022-12-24T10:29:25;50.17;;;28.63;;
59263;SDS011;45030;42.720;23.344;2022-12-24T10:31:53;52.35;;;30.85;;
59263;SDS011;45030;42.720;23.344;2022-12-24T10:34:24;56.17;;;29.13;;
59263;SDS011;45030;42.720;23.344;2022-12-24T10:36:52;55.42;;;30.00;;
59263;SDS011;45030;42.720;23.344;2022-12-24T10:39:19;44.90;;;27.25;;
59263;SDS011;45030;42.720;23.344;2022-12-24T10:41:46;43.88;;;24.05;;
59263;SDS011;45030;42.720;23.344;2022-12-24T10:44:16;40.65;;;24.60;;
59263;SDS011;45030;42.720;23.344;2022-12-24T10:46:42;43.90;;;27.05;;
59263;SDS011;45030;42.720;23.344;2022-12-24T10:49:11;51.50;;;29.33;;
59263;SDS011;45030;42.720;23.344;2022-12-24T10:51:44;62.85;;;32.58;;
59263;SDS011;45030;42.720;23.344;2022-12-24T10:56:38;59.28;;;32.03;;
59263;SDS011;45030;42.720;23.344;2022-12-24T10:59:04;56.63;;;32.38;;
59263;SDS011;45030;42.720;23.344;2022-12-24T11:01:43;62.72;;;32.75;;
59263;SDS011;45030;42.720;23.344;2022-12-24T11:04:14;58.35;;;32.08;;
59263;SDS011;45030;42.720;23.344;2022-12-24T11:06:56;69.30;;;36.53;;
59263;SDS011;45030;42.720;23.344;2022-12-24T11:09:23;69.28;;;38.58;;
59263;SDS011;45030;42.720;23.344;2022-12-24T11:11:48;69.85;;;38.17;;
59263;SDS011;45030;42.720;23.344;2022-12-24T11:14:15;84.38;;;45.90;;
59263;SDS011;45030;42.720;23.344;2022-12-24T11:16:46;140.07;;;55.88;;
59263;SDS011;45030;42.720;23.344;2022-12-24T11:19:16;77.07;;;38.60;;
59263;SDS011;45030;42.720;23.344;2022-12-24T11:21:42;75.28;;;37.58;;
59263;SDS011;45030;42.720;23.344;2022-12-24T11:26:36;61.58;;;30.25;;
59263;SDS011;45030;42.720;23.344;2022-12-24T11:31:32;52.35;;;31.00;;
59263;SDS011;45030;42.720;23.344;2022-12-24T11:34:02;55.58;;;32.50;;
59263;SDS011;45030;42.720;23.344;2022-12-24T11:36:40;59.65;;;31.92;;
59263;SDS011;45030;42.720;23.344;2022-12-24T11:39:10;54.38;;;32.38;;
59263;SDS011;45030;42.720;23.344;2022-12-24T11:41:41;59.97;;;32.45;;
59263;SDS011;45030;42.720;23.344;2022-12-24T11:44:06;53.63;;;29.40;;
59263;SDS011;45030;42.720;23.344;2022-12-24T11:49:14;55.55;;;32.17;;
59263;SDS011;45030;42.720;23.344;2022-12-24T11:51:40;57.25;;;32.88;;
59263;SDS011;45030;42.720;23.344;2022-12-24T11:54:15;68.97;;;38.63;;
59263;SDS011;45030;42.720;23.344;2022-12-24T11:59:21;68.63;;;38.47;;
59263;SDS011;45030;42.720;23.344;2022-12-24T12:01:56;69.82;;;40.03;;
59263;SDS011;45030;42.720;23.344;2022-12-24T12:04:30;76.75;;;41.78;;
59263;SDS011;45030;42.720;23.344;2022-12-24T12:07:09;76.70;;;42.10;;
59263;SDS011;45030;42.720;23.344;2022-12-24T12:10:18;78.50;;;44.85;;
59263;SDS011;45030;42.720;23.344;2022-12-24T12:12:25;87.15;;;46.50;;
59263;SDS011;45030;42.720;23.344;2022-12-24T12:14:58;89.30;;;46.88;;
59263;SDS011;45030;42.720;23.344;2022-12-24T12:19:54;76.70;;;42.55;;
59263;SDS011;45030;42.720;23.344;2022-12-24T12:25:13;95.20;;;48.35;;
59263;SDS011;45030;42.720;23.344;2022-12-24T12:27:42;79.22;;;41.15;;
59263;SDS011;45030;42.720;23.344;2022-12-24T12:30:13;68.72;;;40.80;;
59263;SDS011;45030;42.720;23.344;2022-12-24T12:40:24;71.85;;;36.88;;
59263;SDS011;45030;42.720;23.344;2022-12-24T12:43:00;73.57;;;41.63;;
59263;SDS011;45030;42.720;23.344;2022-12-24T12:45:33;65.97;;;38.03;;
59263;SDS011;45030;42.720;23.344;2022-12-24T12:50:37;71.47;;;38.97;;
59263;SDS011;45030;42.720;23.344;2022-12-24T12:55:41;65.88;;;35.08;;
59263;SDS011;45030;42.720;23.344;2022-12-24T12:58:29;68.30;;;38.42;;
59263;SDS011;45030;42.720;23.344;2022-12-24T13:00:58;95.85;;;46.55;;
59263;SDS011;45030;42.720;23.344;2022-12-24T13:03:36;82.35;;;41.97;;
59263;SDS011;45030;42.720;23.344;2022-12-24T13:06:11;84.13;;;40.28;;
59263;SDS011;45030;42.720;23.344;2022-12-24T13:14:00;61.70;;;33.83;;
59263;SDS011;45030;42.720;23.344;2022-12-24T13:16:35;71.38;;;39.38;;
59263;SDS011;45030;42.720;23.344;2022-12-24T13:21:34;57.85;;;31.17;;
59263;SDS011;45030;42.720;23.344;2022-12-24T13:26:36;61.20;;;37.28;;
59263;SDS011;45030;42.720;23.344;2022-12-24T13:30:03;53.28;;;32.13;;
59263;SDS011;45030;42.720;23.344;2022-12-24T13:35:01;55.90;;;33.97;;
59263;SDS011;45030;42.720;23.344;2022-12-24T13:42:51;53.33;;;25.48;;
59263;SDS011;45030;42.720;23.344;2022-12-24T13:47:56;52.10;;;29.15;;
59263;SDS011;45030;42.720;23.344;2022-12-24T13:50:27;54.17;;;29.80;;
59263;SDS011;45030;42.720;23.344;2022-12-24T13:52:53;57.00;;;32.00;;
59263;SDS011;45030;42.720;23.344;2022-12-24T13:55:19;55.28;;;31.45;;
59263;SDS011;45030;42.720;23.344;2022-12-24T13:57:57;58.95;;;34.13;;
59263;SDS011;45030;42.720;23.344;2022-12-24T14:00:25;56.38;;;31.40;;
59263;SDS011;45030;42.720;23.344;2022-12-24T14:05:56;61.85;;;35.33;;
59263;SDS011;45030;42.720;23.344;2022-12-24T14:16:03;97.00;;;47.00;;
59263;SDS011;45030;42.720;23.344;2022-12-24T14:18:30;105.45;;;51.17;;
59263;SDS011;45030;42.720;23.344;2022-12-24T14:20:58;78.95;;;42.78;;
59263;SDS011;45030;42.720;23.344;2022-12-24T14:25:52;91.38;;;45.17;;
59263;SDS011;45030;42.720;23.344;2022-12-24T14:28:18;90.38;;;49.13;;
59263;SDS011;45030;42.720;23.344;2022-12-24T14:30:58;104.72;;;53.25;;
59263;SDS011;45030;42.720;23.344;2022-12-24T14:33:27;115.07;;;58.00;;
59263;SDS011;45030;42.720;23.344;2022-12-24T14:35:52;153.40;;;77.68;;
59263;SDS011;45030;42.720;23.344;2022-12-24T14:38:17;184.95;;;87.70;;
59263;SDS011;45030;42.720;23.344;2022-12-24T14:40:52;156.18;;;80.15;;
59263;SDS011;45030;42.720;23.344;2022-12-24T14:46:01;136.15;;;66.20;;
59263;SDS011;45030;42.720;23.344;2022-12-24T14:48:40;167.63;;;80.65;;
59263;SDS011;45030;42.720;23.344;2022-12-24T14:56:17;132.60;;;69.20;;
59263;SDS011;45030;42.720;23.344;2022-12-24T14:58:43;127.50;;;63.08;;
59263;SDS011;45030;42.720;23.344;2022-12-24T15:06:09;218.80;;;124.07;;
59263;SDS011;45030;42.720;23.344;2022-12-24T15:08:37;224.63;;;110.00;;
59263;SDS011;45030;42.720;23.344;2022-12-24T15:11:04;282.02;;;133.65;;
59263;SDS011;45030;42.720;23.344;2022-12-24T15:13:40;313.60;;;145.02;;
59263;SDS011;45030;42.720;23.344;2022-12-24T15:16:07;321.00;;;152.93;;
59263;SDS011;45030;42.720;23.344;2022-12-24T15:18:34;317.33;;;147.02;;
59263;SDS011;45030;42.720;23.344;2022-12-24T15:21:02;277.33;;;125.03;;
59263;SDS011;45030;42.720;23.344;2022-12-24T15:23:30;237.13;;;114.32;;
59263;SDS011;45030;42.720;23.344;2022-12-24T15:28:40;202.25;;;96.68;;
59263;SDS011;45030;42.720;23.344;2022-12-24T15:31:07;186.18;;;96.13;;
59263;SDS011;45030;42.720;23.344;2022-12-24T15:33:36;198.63;;;96.63;;
59263;SDS011;45030;42.720;23.344;2022-12-24T15:36:01;221.95;;;104.32;;
59263;SDS011;45030;42.720;23.344;2022-12-24T15:38:34;243.70;;;119.40;;
59263;SDS011;45030;42.720;23.344;2022-12-24T15:43:26;360.48;;;195.45;;
59263;SDS011;45030;42.720;23.344;2022-12-24T15:45:52;277.83;;;155.68;;
59263;SDS011;45030;42.720;23.344;2022-12-24T15:48:22;245.38;;;124.38;;
59263;SDS011;45030;42.720;23.344;2022-12-24T15:50:49;223.38;;;113.18;;
59263;SDS011;45030;42.720;23.344;2022-12-24T15:53:36;233.00;;;115.95;;
59263;SDS011;45030;42.720;23.344;2022-12-24T15:56:08;249.23;;;135.90;;
59263;SDS011;45030;42.720;23.344;2022-12-24T15:58:34;289.23;;;162.25;;
59263;SDS011;45030;42.720;23.344;2022-12-24T16:01:01;210.80;;;109.20;;